Observations for EXETER AIRPORT, United Kingdom (EGTE)

EGTE 220950Z VRB03KT 9999 FEW040 15/10 Q1010
EGTE 220920Z 31009KT 8000 FEW020 14/10 Q1010
EGTE 220850Z 31011KT 270V330 7000 FEW018 14/11 Q1010
EGTE 220820Z VRB01KT 5000 BR FEW015 12/12 Q1010 
EGTE 220750Z VRB02KT 3500 BR NSC 11/11 Q1010
EGTE 220720Z VRB01KT 1200 R08/0650 R26/P1500 BR NSC 10/10 Q1009 
EGTE 220650Z 00000KT 0400 FG NSC 08/08 Q1009
EGTE 220620Z VRB03KT 1600 BR NSC 08/08 Q1009
EGTE 220550Z VRB01KT 0300 FG NSC 07/07 Q1009
EGTE 220520Z 33005KT 0400 R08/0275 R26/0450 FG NSC 06/06 Q1009  
EGTE 220450Z VRB03KT 0800 R08/0275 R26/1000 FG NSC 07/06 Q1009  
EGTE 220420Z 00000KT 0800 FG NSC 08/08 Q1009
EGTE 212250Z 08004KT 6000 NSC 11/10 Q1013   
EGTE 212220Z VRB01KT 6000 NSC 11/10 Q1013   
EGTE 212150Z VRB02KT 6000 NSC 11/10 Q1013   
EGTE 211750Z 11017KT 9999 8000NE VCTS VCSH FEW040CB 14/11 Q1014 
EGTE 211720Z 14007KT 110V180 9999 VCTS VCSH FEW040CB 15/11 Q1015
EGTE 211650Z 16004KT 120V230 9999 VCSH FEW040CB 16/11 Q1015 
EGTE 211620Z 18007KT 150V210 9999 FEW040CB 18/12 Q1015  
EGTE 211550Z 16008KT 9999 FEW035 19/12 Q1015
EGTE 211520Z 16010KT 9999 FEW035 18/12 Q1015
EGTE 211450Z 16010KT 9999 FEW045 18/12 Q1016
EGTE 211420Z 14009KT 100V180 9999 FEW045 19/12 Q1016
EGTE 211350Z 15010KT 110V180 9999 FEW030 19/12 Q1017
EGTE 211320Z 13008KT 090V170 9999 FEW030 20/13 Q1017
EGTE 211250Z 14008KT 9999 FEW030 19/13 Q1017
EGTE 211220Z 16011KT CAVOK 19/12 Q1018  
EGTE 211150Z VRB02KT CAVOK 18/13 Q1018  
EGTE 211120Z VRB03KT CAVOK 16/12 Q1018  
EGTE 211050Z 23006KT 9999 FEW040 14/12 Q1019
EGTE 211020Z 08004KT 020V170 9999 FEW033 14/12 Q1019
EGTE 210950Z 12006KT 100V170 9999 -RA FEW020 14/11 Q1019
EGTE 210920Z 19004KT 160V220 9999 FEW020 14/11 Q1020